createdAt,value
2018-07-03T00:00:54.302Z,15.50
2018-07-03T00:03:23.693Z,15.40
2018-07-03T00:05:51.504Z,15.30
2018-07-03T00:08:19.433Z,15.30
2018-07-03T00:10:47.300Z,15.30
2018-07-03T00:13:15.177Z,15.30
2018-07-03T00:15:43.218Z,15.20
2018-07-03T00:18:11.299Z,15.10
2018-07-03T00:20:39.167Z,15.10
2018-07-03T00:23:07.042Z,15.10
2018-07-03T00:25:34.898Z,15.30
2018-07-03T00:28:02.832Z,15.20
2018-07-03T00:30:30.649Z,15.10
2018-07-03T00:32:58.569Z,15.10
2018-07-03T00:35:26.467Z,15.00
2018-07-03T00:37:54.341Z,15.10
2018-07-03T00:40:22.217Z,15.00
2018-07-03T00:42:50.113Z,14.90
2018-07-03T00:45:17.977Z,14.90
2018-07-03T00:47:45.874Z,15.00
2018-07-03T00:50:13.784Z,14.80
2018-07-03T00:52:41.661Z,14.70
2018-07-03T00:57:37.352Z,14.70
2018-07-03T01:00:22.732Z,14.90
2018-07-03T01:02:50.746Z,14.80
2018-07-03T01:07:46.730Z,14.50
2018-07-03T01:10:14.602Z,14.60
2018-07-03T01:12:42.534Z,14.60
2018-07-03T01:15:10.401Z,14.70
2018-07-03T01:17:38.321Z,14.60
2018-07-03T01:20:06.277Z,14.40
2018-07-03T01:22:34.200Z,14.20
2018-07-03T01:25:02.132Z,14.20
2018-07-03T01:27:29.942Z,14.30
2018-07-03T01:29:57.901Z,14.60
2018-07-03T01:32:25.757Z,14.70
2018-07-03T01:34:53.633Z,14.40
2018-07-03T01:37:21.510Z,14.20
2018-07-03T01:39:49.384Z,14.20
2018-07-03T01:42:17.289Z,14.10
2018-07-03T01:44:45.085Z,14.10
2018-07-03T01:47:13.014Z,13.90
2018-07-03T01:49:40.917Z,13.80
2018-07-03T01:52:08.760Z,13.70
2018-07-03T01:54:36.711Z,13.60
2018-07-03T01:57:04.649Z,13.70
2018-07-03T01:59:32.568Z,13.70
2018-07-03T02:02:00.485Z,13.70
2018-07-03T02:04:28.453Z,13.50
2018-07-03T02:06:56.428Z,13.50
2018-07-03T02:09:24.376Z,13.50
2018-07-03T02:11:52.228Z,13.40
2018-07-03T02:14:20.124Z,13.40
2018-07-03T02:16:48.026Z,13.40
2018-07-03T02:19:15.897Z,13.30
2018-07-03T02:21:43.761Z,13.20
2018-07-03T02:24:11.765Z,13.10
2018-07-03T02:26:39.684Z,13.30
2018-07-03T02:29:07.549Z,13.60
2018-07-03T02:31:35.489Z,13.40
2018-07-03T02:34:03.423Z,13.20
2018-07-03T02:36:31.352Z,13.00
2018-07-03T02:38:59.212Z,13.00
2018-07-03T02:41:27.073Z,12.90
2018-07-03T02:46:22.817Z,12.70
2018-07-03T02:48:50.621Z,12.60
2018-07-03T02:51:18.552Z,12.60
2018-07-03T02:53:46.447Z,12.60
2018-07-03T02:56:14.309Z,12.60
2018-07-03T02:58:42.168Z,12.60
2018-07-03T03:03:38.841Z,12.50
2018-07-03T03:06:06.682Z,12.60
2018-07-03T03:08:34.561Z,12.50
2018-07-03T03:11:02.402Z,12.50
2018-07-03T03:13:30.286Z,12.50
2018-07-03T03:15:58.127Z,12.50
2018-07-03T03:18:25.933Z,12.90
2018-07-03T03:20:53.837Z,12.70
2018-07-03T03:23:21.853Z,12.70
2018-07-03T03:25:49.719Z,12.80
2018-07-03T03:28:17.548Z,12.80
2018-07-03T03:30:45.433Z,12.50
2018-07-03T03:33:13.273Z,12.50
2018-07-03T03:35:41.093Z,12.30
2018-07-03T03:38:08.956Z,12.50
2018-07-03T03:40:36.886Z,12.70
2018-07-03T03:43:04.763Z,12.90
2018-07-03T03:45:32.614Z,12.80
2018-07-03T03:48:00.524Z,12.70
2018-07-03T03:50:28.397Z,12.80
2018-07-03T03:52:56.340Z,13.00
2018-07-03T03:55:24.354Z,13.00
2018-07-03T03:57:52.231Z,12.90
2018-07-03T04:02:47.983Z,12.80
2018-07-03T04:05:15.868Z,12.90
2018-07-03T04:07:43.775Z,12.70
2018-07-03T04:10:11.673Z,12.90
2018-07-03T04:12:39.544Z,12.80
2018-07-03T04:15:07.828Z,13.00
2018-07-03T04:17:35.905Z,13.20
2018-07-03T04:20:04.249Z,13.40
2018-07-03T04:22:32.181Z,13.40
2018-07-03T04:27:28.000Z,13.40
2018-07-03T04:29:55.969Z,13.50
2018-07-03T04:32:23.877Z,13.40
2018-07-03T04:34:51.768Z,13.40
2018-07-03T04:37:19.674Z,13.70
2018-07-03T04:39:47.640Z,13.80
2018-07-03T04:42:15.497Z,13.80
2018-07-03T04:44:43.440Z,13.80
2018-07-03T04:47:11.329Z,13.70
2018-07-03T04:49:39.246Z,13.90
2018-07-03T04:52:07.205Z,13.90
2018-07-03T04:54:35.174Z,14.10
2018-07-03T04:57:03.089Z,14.40
2018-07-03T04:59:31.058Z,15.10
2018-07-03T05:01:58.981Z,16.30
2018-07-03T05:04:26.941Z,17.50
2018-07-03T05:06:54.832Z,18.60
2018-07-03T05:09:22.717Z,19.20
2018-07-03T05:11:50.620Z,20.40
2018-07-03T05:16:50.916Z,21.20
2018-07-03T05:19:18.816Z,21.80
2018-07-03T05:21:46.724Z,22.10
2018-07-03T05:24:14.601Z,22.20
2018-07-03T05:29:10.353Z,23.70
2018-07-03T05:31:38.350Z,24.20
2018-07-03T05:34:06.900Z,24.50
2018-07-03T05:39:03.048Z,25.30
2018-07-03T05:41:30.969Z,25.80
2018-07-03T05:43:58.865Z,25.40
2018-07-03T05:46:26.817Z,24.30
2018-07-03T05:48:54.678Z,25.70
2018-07-03T05:51:22.628Z,25.90
2018-07-03T05:53:50.465Z,24.80
2018-07-03T05:56:18.393Z,24.80
2018-07-03T05:58:46.318Z,24.00
2018-07-03T06:01:14.149Z,23.60
2018-07-03T06:03:42.117Z,23.80
2018-07-03T06:06:09.944Z,23.10
2018-07-03T06:08:37.893Z,23.80
2018-07-03T06:11:05.813Z,23.00
2018-07-03T06:13:33.690Z,23.70
2018-07-03T06:16:01.547Z,23.90
2018-07-03T06:18:29.471Z,23.80
2018-07-03T06:20:57.396Z,23.50
2018-07-03T06:25:53.243Z,23.10
2018-07-03T06:28:21.168Z,23.40
2018-07-03T06:30:49.168Z,23.40
2018-07-03T06:33:17.070Z,23.20
2018-07-03T06:35:44.874Z,23.70
2018-07-03T06:38:12.837Z,24.80
2018-07-03T06:40:40.677Z,24.20
2018-07-03T06:43:08.541Z,23.90
2018-07-03T06:45:36.499Z,23.00
2018-07-03T06:48:04.470Z,22.80
2018-07-03T06:50:32.393Z,22.80
2018-07-03T06:53:00.261Z,22.60
2018-07-03T06:55:28.174Z,22.60
2018-07-03T06:57:56.195Z,22.90
2018-07-03T07:00:24.014Z,23.70
2018-07-03T07:02:51.897Z,24.40
2018-07-03T07:05:19.800Z,24.40
2018-07-03T07:07:47.637Z,23.50
2018-07-03T07:10:15.498Z,23.50
2018-07-03T07:12:43.381Z,23.30
2018-07-03T07:15:11.289Z,23.20
2018-07-03T07:17:39.221Z,23.20
2018-07-03T07:20:07.208Z,23.00
2018-07-03T07:22:35.268Z,23.00
2018-07-03T07:25:03.156Z,23.00
2018-07-03T07:27:31.093Z,23.20
2018-07-03T07:29:58.905Z,22.70
2018-07-03T07:32:26.836Z,23.00
2018-07-03T07:34:54.841Z,22.90
2018-07-03T07:37:22.744Z,22.80
2018-07-03T07:39:50.648Z,22.80
2018-07-03T07:42:18.601Z,23.00
2018-07-03T07:44:46.426Z,22.90
2018-07-03T07:47:14.294Z,23.00
2018-07-03T07:49:42.656Z,23.10
2018-07-03T07:52:10.220Z,22.80
2018-07-03T07:54:38.139Z,22.90
2018-07-03T07:57:06.026Z,23.00
2018-07-03T07:59:33.878Z,22.90
2018-07-03T08:02:01.820Z,22.70
2018-07-03T08:04:29.664Z,22.60
2018-07-03T08:06:57.603Z,22.60
2018-07-03T08:09:25.471Z,22.60
2018-07-03T08:11:53.368Z,22.50
2018-07-03T08:14:21.281Z,22.60
2018-07-03T08:16:49.115Z,22.70
2018-07-03T08:19:17.027Z,22.80
2018-07-03T08:21:44.825Z,22.90
2018-07-03T08:24:12.676Z,22.90
2018-07-03T08:26:40.599Z,23.30
2018-07-03T08:29:08.492Z,23.00
2018-07-03T08:34:04.248Z,23.00
2018-07-03T08:36:32.077Z,23.00
2018-07-03T08:41:27.836Z,23.10
2018-07-03T08:43:55.736Z,23.30
2018-07-03T08:46:23.584Z,23.20
2018-07-03T08:48:51.409Z,23.30
2018-07-03T08:51:19.316Z,23.30
2018-07-03T08:53:47.101Z,23.30
2018-07-03T08:58:42.765Z,23.30
2018-07-03T09:01:10.672Z,23.50
2018-07-03T09:03:38.547Z,23.60
2018-07-03T09:06:06.536Z,23.60
2018-07-03T09:08:34.373Z,23.70
2018-07-03T09:11:02.322Z,23.60
2018-07-03T09:13:30.158Z,23.50
2018-07-03T09:15:58.061Z,23.90
2018-07-03T09:18:25.961Z,24.10
2018-07-03T09:20:53.817Z,23.80
2018-07-03T09:23:21.725Z,23.80
2018-07-03T09:25:49.681Z,23.70
2018-07-03T09:28:17.541Z,23.80
2018-07-03T09:30:45.436Z,24.10
2018-07-03T09:33:13.258Z,24.40
2018-07-03T09:35:41.079Z,24.50
2018-07-03T09:38:08.959Z,24.50
2018-07-03T09:40:37.537Z,24.50
2018-07-03T09:43:05.605Z,24.50
2018-07-03T09:45:33.457Z,24.70
2018-07-03T09:48:01.326Z,25.00
2018-07-03T09:50:29.189Z,25.30
2018-07-03T09:52:57.157Z,25.00
2018-07-03T09:55:25.023Z,25.00
2018-07-03T09:57:53.242Z,25.30
2018-07-03T10:00:26.806Z,26.10
2018-07-03T10:02:55.249Z,27.70
2018-07-03T10:05:23.137Z,29.00
2018-07-03T10:07:50.981Z,29.80
2018-07-03T10:10:18.876Z,31.20
2018-07-03T10:12:46.812Z,31.60
2018-07-03T10:15:14.746Z,31.80
2018-07-03T10:20:10.464Z,31.80
2018-07-03T10:22:38.377Z,31.70
2018-07-03T10:25:06.300Z,32.40
2018-07-03T10:27:34.254Z,32.90
2018-07-03T10:30:02.112Z,32.30
2018-07-03T10:32:30.074Z,33.30
2018-07-03T10:34:58.036Z,34.70
2018-07-03T10:39:53.913Z,35.00
2018-07-03T10:42:21.901Z,35.50
2018-07-03T10:44:49.753Z,36.30
2018-07-03T10:47:17.666Z,36.30
2018-07-03T10:49:45.592Z,35.30
2018-07-03T10:52:13.461Z,35.60
2018-07-03T10:54:41.473Z,35.10
2018-07-03T10:57:09.608Z,35.60
2018-07-03T10:59:37.570Z,35.80
2018-07-03T11:02:05.880Z,36.20
2018-07-03T11:04:33.705Z,36.40
2018-07-03T11:07:01.609Z,37.20
2018-07-03T11:09:29.457Z,37.40
2018-07-03T11:11:57.292Z,37.50
2018-07-03T11:14:25.168Z,37.50
2018-07-03T11:16:53.046Z,37.20
2018-07-03T11:19:20.897Z,37.50
2018-07-03T11:21:48.788Z,37.20
2018-07-03T11:24:17.055Z,36.80
2018-07-03T11:26:44.939Z,37.40
2018-07-03T11:29:12.780Z,38.00
2018-07-03T11:31:40.632Z,37.40
2018-07-03T11:34:08.501Z,36.80
2018-07-03T11:39:07.043Z,37.10
2018-07-03T11:41:35.114Z,37.40
2018-07-03T11:44:03.044Z,38.60
2018-07-03T11:46:30.965Z,38.80
2018-07-03T11:48:58.869Z,38.60
2018-07-03T11:51:26.725Z,39.20
2018-07-03T11:53:54.547Z,39.00
2018-07-03T11:56:22.528Z,38.50
2018-07-03T11:58:50.477Z,38.60
2018-07-03T12:01:18.507Z,39.10
2018-07-03T12:03:46.276Z,39.20
2018-07-03T12:06:14.341Z,38.60
2018-07-03T12:08:42.314Z,38.90
2018-07-03T12:11:10.435Z,39.40
2018-07-03T12:13:38.360Z,39.00
2018-07-03T12:16:06.245Z,38.90
2018-07-03T12:18:39.768Z,38.20
2018-07-03T12:21:07.636Z,39.20
2018-07-03T12:23:35.657Z,39.30
2018-07-03T12:26:03.554Z,39.60
2018-07-03T12:28:31.587Z,39.40
2018-07-03T12:30:59.420Z,38.40
2018-07-03T12:33:27.278Z,38.80
2018-07-03T12:35:55.125Z,38.80
2018-07-03T12:40:50.996Z,39.10
2018-07-03T12:43:18.909Z,38.60
2018-07-03T12:45:46.893Z,39.00
2018-07-03T12:48:14.732Z,39.30
2018-07-03T12:50:42.644Z,39.70
2018-07-03T12:53:10.600Z,38.90
2018-07-03T12:55:38.494Z,39.00
2018-07-03T13:00:34.386Z,38.60
2018-07-03T13:03:02.281Z,38.10
2018-07-03T13:05:30.178Z,38.10
2018-07-03T13:10:25.917Z,36.70
2018-07-03T13:12:53.833Z,37.40
2018-07-03T13:15:21.704Z,37.70
2018-07-03T13:17:49.620Z,37.70
2018-07-03T13:20:17.477Z,37.70
2018-07-03T13:22:45.353Z,38.20
2018-07-03T13:25:13.373Z,37.90
2018-07-03T13:27:42.525Z,37.90
2018-07-03T13:30:10.700Z,37.80
2018-07-03T13:32:38.572Z,37.80
2018-07-03T13:35:07.943Z,36.80
2018-07-03T13:37:36.108Z,36.40
2018-07-03T13:40:05.493Z,36.40
2018-07-03T13:42:33.365Z,36.10
2018-07-03T13:45:01.249Z,36.10
2018-07-03T13:47:29.097Z,35.30
2018-07-03T13:49:57.050Z,35.30
2018-07-03T13:52:25.333Z,34.60
2018-07-03T13:54:53.290Z,35.00
2018-07-03T13:57:21.237Z,34.60
2018-07-03T13:59:49.113Z,34.00
2018-07-03T14:02:17.067Z,34.00
2018-07-03T14:04:44.918Z,33.60
2018-07-03T14:07:13.069Z,32.70
2018-07-03T14:09:40.994Z,33.10
2018-07-03T14:12:08.877Z,33.30
2018-07-03T14:19:36.832Z,32.40
2018-07-03T14:22:04.941Z,32.40
2018-07-03T14:24:32.817Z,32.00
2018-07-03T14:27:00.714Z,32.00
2018-07-03T14:29:30.600Z,32.00
2018-07-03T14:34:26.380Z,31.70
2018-07-03T14:36:56.193Z,31.60
2018-07-03T14:39:25.905Z,31.50
2018-07-03T14:41:53.896Z,31.40
2018-07-03T14:44:21.855Z,30.90
2018-07-03T14:46:49.980Z,30.50
2018-07-03T14:49:17.936Z,30.20
2018-07-03T14:51:45.949Z,30.30
2018-07-03T14:54:13.800Z,30.60
2018-07-03T14:56:41.716Z,30.80
2018-07-03T14:59:09.721Z,30.90
2018-07-03T15:01:38.177Z,31.00
2018-07-03T15:04:06.037Z,30.80
2018-07-03T15:06:34.973Z,30.80
2018-07-03T15:09:05.604Z,30.50
2018-07-03T15:11:34.245Z,30.60
2018-07-03T15:14:03.225Z,30.90
2018-07-03T15:16:31.514Z,30.50
2018-07-03T15:19:04.928Z,30.60
2018-07-03T15:21:32.753Z,30.80
2018-07-03T15:24:00.613Z,30.70
2018-07-03T15:26:28.515Z,30.80
2018-07-03T15:28:56.289Z,31.10
2018-07-03T15:31:24.132Z,31.00
2018-07-03T15:33:52.488Z,30.60
2018-07-03T15:36:20.728Z,30.20
2018-07-03T15:38:48.607Z,30.10
2018-07-03T15:41:16.676Z,30.00
2018-07-03T15:44:01.980Z,30.10
2018-07-03T15:48:57.742Z,30.20
2018-07-03T15:51:25.652Z,30.20
2018-07-03T15:53:54.576Z,30.30
2018-07-03T15:56:22.557Z,30.40
2018-07-03T15:58:50.444Z,30.30
2018-07-03T16:01:19.219Z,30.20
2018-07-03T16:05:03.509Z,29.90
2018-07-03T16:08:50.652Z,29.90
2018-07-03T16:11:18.595Z,29.90
2018-07-03T16:13:46.426Z,29.90
2018-07-03T16:16:15.093Z,29.90
2018-07-03T16:18:42.989Z,29.90
2018-07-03T16:21:10.857Z,29.60
2018-07-03T16:23:38.734Z,29.80
2018-07-03T16:26:06.697Z,29.90
2018-07-03T16:28:34.646Z,29.90
2018-07-03T16:31:02.556Z,30.10
2018-07-03T16:33:30.573Z,30.10
2018-07-03T16:38:26.349Z,30.00
2018-07-03T16:40:54.289Z,29.80
2018-07-03T16:43:22.158Z,29.80
2018-07-03T16:48:18.034Z,29.40
2018-07-03T16:50:47.897Z,29.50
2018-07-03T16:53:24.221Z,29.40
2018-07-03T16:55:52.065Z,29.30
2018-07-03T16:58:19.944Z,29.30
2018-07-03T17:00:47.815Z,29.30
2018-07-03T17:03:15.781Z,29.20
2018-07-03T17:08:11.673Z,28.90
2018-07-03T17:10:39.625Z,28.80
2018-07-03T17:13:07.572Z,28.70
2018-07-03T17:15:35.477Z,28.70
2018-07-03T17:18:03.365Z,28.50
2018-07-03T17:20:31.179Z,28.40
2018-07-03T17:22:59.049Z,28.20
2018-07-03T17:27:54.786Z,28.00
2018-07-03T17:30:22.841Z,28.00
2018-07-03T17:32:50.747Z,27.80
2018-07-03T17:35:18.690Z,27.80
2018-07-03T17:37:46.630Z,27.70
2018-07-03T17:40:31.877Z,27.50
2018-07-03T17:44:26.457Z,27.50
2018-07-03T17:46:54.385Z,27.40
2018-07-03T17:49:22.272Z,27.40
2018-07-03T17:54:18.178Z,27.30
2018-07-03T17:56:46.070Z,27.30
2018-07-03T18:01:41.911Z,27.20
2018-07-03T18:04:13.290Z,27.10
2018-07-03T18:06:41.187Z,27.00
2018-07-03T18:09:11.141Z,27.00
2018-07-03T18:11:39.080Z,26.90
2018-07-03T18:14:07.152Z,26.80
2018-07-03T18:16:34.997Z,26.70
2018-07-03T18:19:08.772Z,26.60
2018-07-03T18:21:36.684Z,26.50
2018-07-03T18:24:05.103Z,26.40
2018-07-03T18:26:33.376Z,26.30
2018-07-03T18:29:01.378Z,26.20
2018-07-03T18:31:29.297Z,26.20
2018-07-03T18:33:57.250Z,26.10
2018-07-03T18:38:52.957Z,25.90
2018-07-03T18:41:20.876Z,25.80
2018-07-03T18:48:44.605Z,25.60
2018-07-03T18:51:12.526Z,25.50
2018-07-03T18:53:40.404Z,25.40
2018-07-03T18:56:08.271Z,25.30
2018-07-03T18:58:36.217Z,25.30
2018-07-03T19:01:04.240Z,25.20
2018-07-03T19:06:00.095Z,25.00
2018-07-03T19:08:27.908Z,24.80
2018-07-03T19:10:55.789Z,24.80
2018-07-03T19:13:23.717Z,24.70
2018-07-03T19:15:51.568Z,24.50
2018-07-03T19:18:19.475Z,24.40
2018-07-03T19:20:47.566Z,24.20
2018-07-03T19:23:15.521Z,24.00
2018-07-03T19:25:43.465Z,23.90
2018-07-03T19:28:11.342Z,23.70
2018-07-03T19:30:39.239Z,23.70
2018-07-03T19:33:07.150Z,23.50
2018-07-03T19:35:34.942Z,23.40
2018-07-03T19:38:03.125Z,23.40
2018-07-03T19:40:30.916Z,23.30
2018-07-03T19:43:32.538Z,23.20
2018-07-03T19:46:01.121Z,23.10
2018-07-03T19:48:28.957Z,22.90
2018-07-03T19:50:56.940Z,22.70
2018-07-03T19:53:24.768Z,22.60
2018-07-03T19:58:22.060Z,22.40
2018-07-03T20:00:51.013Z,22.30
2018-07-03T20:03:18.961Z,22.20
2018-07-03T20:05:46.829Z,22.00
2018-07-03T20:08:14.757Z,21.90
2018-07-03T20:10:42.730Z,21.80
2018-07-03T20:13:12.822Z,21.70
2018-07-03T20:15:40.694Z,21.70
2018-07-03T20:18:10.170Z,21.60
2018-07-03T20:20:38.341Z,21.60
2018-07-03T20:23:06.314Z,21.60
2018-07-03T20:25:35.049Z,21.60
2018-07-03T20:28:02.969Z,21.40
2018-07-03T20:30:30.904Z,21.20
2018-07-03T20:32:58.985Z,21.10
2018-07-03T20:35:27.021Z,21.00
2018-07-03T20:38:03.120Z,20.90
2018-07-03T20:41:03.161Z,20.80
2018-07-03T20:43:32.511Z,20.70
2018-07-03T20:46:00.445Z,20.70
2018-07-03T20:48:28.465Z,20.80
2018-07-03T20:50:57.141Z,20.80
2018-07-03T20:53:25.097Z,20.70
2018-07-03T20:55:53.007Z,20.60
2018-07-03T20:58:21.216Z,20.60
2018-07-03T21:00:49.061Z,20.40
2018-07-03T21:03:16.985Z,20.30
2018-07-03T21:05:44.819Z,20.30
2018-07-03T21:08:12.718Z,20.30
2018-07-03T21:10:40.677Z,20.20
2018-07-03T21:13:08.599Z,20.20
2018-07-03T21:15:36.429Z,20.10
2018-07-03T21:18:04.327Z,19.80
2018-07-03T21:20:32.251Z,19.70
2018-07-03T21:23:00.264Z,19.60
2018-07-03T21:25:28.169Z,19.50
2018-07-03T21:27:56.044Z,19.40
2018-07-03T21:30:23.970Z,19.20
2018-07-03T21:32:51.837Z,19.10
2018-07-03T21:35:20.473Z,19.10
2018-07-03T21:37:48.567Z,19.30
2018-07-03T21:40:16.454Z,19.30
2018-07-03T21:42:44.308Z,19.30
2018-07-03T21:45:12.089Z,19.10
2018-07-03T21:47:39.881Z,19.10
2018-07-03T21:50:07.789Z,19.00
2018-07-03T21:52:35.645Z,18.90
2018-07-03T21:55:03.589Z,18.80
2018-07-03T21:57:31.501Z,18.80
2018-07-03T21:59:59.424Z,18.70
2018-07-03T22:02:27.290Z,18.60
2018-07-03T22:04:55.125Z,18.50
2018-07-03T22:07:23.064Z,18.40
2018-07-03T22:09:51.009Z,18.40
2018-07-03T22:12:18.876Z,18.40
2018-07-03T22:14:46.754Z,18.30
2018-07-03T22:17:14.601Z,18.40
2018-07-03T22:19:42.530Z,18.40
2018-07-03T22:22:10.465Z,18.30
2018-07-03T22:24:38.256Z,18.30
2018-07-03T22:27:06.100Z,18.30
2018-07-03T22:29:33.907Z,18.20
2018-07-03T22:32:11.179Z,18.20
2018-07-03T22:34:40.097Z,18.10
2018-07-03T22:37:07.991Z,18.10
2018-07-03T22:39:39.818Z,18.00
2018-07-03T22:42:12.418Z,18.00
2018-07-03T22:44:40.782Z,18.00
2018-07-03T22:47:08.789Z,18.00
2018-07-03T22:49:36.595Z,17.80
2018-07-03T22:52:04.757Z,17.80
2018-07-03T22:54:32.641Z,17.70
2018-07-03T22:57:00.589Z,17.70
2018-07-03T22:59:28.448Z,17.70
2018-07-03T23:01:56.286Z,17.60
2018-07-03T23:04:24.221Z,17.60
2018-07-03T23:06:52.243Z,17.50
2018-07-03T23:09:20.174Z,17.40
2018-07-03T23:11:48.034Z,17.40
2018-07-03T23:14:15.932Z,17.40
2018-07-03T23:16:43.836Z,17.40
2018-07-03T23:21:39.679Z,17.40
2018-07-03T23:24:07.577Z,17.30
2018-07-03T23:26:35.439Z,17.40
2018-07-03T23:29:03.281Z,17.40
2018-07-03T23:31:31.146Z,17.40
2018-07-03T23:33:59.043Z,17.40
2018-07-03T23:36:26.941Z,17.40
2018-07-03T23:38:54.897Z,17.40
2018-07-03T23:41:22.809Z,17.40
2018-07-03T23:43:51.223Z,17.30
2018-07-03T23:46:36.417Z,17.40
2018-07-03T23:49:21.508Z,17.30
2018-07-03T23:52:06.604Z,17.30
2018-07-03T23:54:51.632Z,17.20
2018-07-03T23:57:36.817Z,17.20
